Time;durP1;ratioP1;P1;durP2;ratioP2;P2;SDS_P1;SDS_P2;PMS_P1;PMS_P2;Temp;Humidity;BMP_temperature;BMP_pressure;BME280_temperature;BME280_humidity;BME280_pressure;Samples;Min_cycle;Max_cycle;Signal;HPM_P1;HPM_P2
2022/09/20 00:00:40;;;;;;;;;11.00;8.00;;;;;12.85;59.52;99501.88;4971229;28;45677;-72
2022/09/20 00:03:06;;;;;;;;;4.25;4.25;;;;;12.80;60.16;99509.16;4973630;28;45385;-72
2022/09/20 00:05:36;;;;;;;;;5.75;5.75;;;;;12.74;60.13;99503.25;4975284;28;45480;-72
2022/09/20 00:08:04;;;;;;;;;8.75;6.25;;;;;12.71;60.39;99503.41;4970738;28;45467;-72
2022/09/20 00:10:33;;;;;;;;;7.50;5.25;;;;;12.66;60.06;99508.88;4971508;28;45626;-72
2022/09/20 00:12:58;;;;;;;;;7.50;7.00;;;;;12.64;60.41;99513.38;4959191;28;45569;-72
2022/09/20 00:15:24;;;;;;;;;6.00;6.00;;;;;12.60;60.54;99519.72;4972557;28;45446;-72
2022/09/20 00:17:49;;;;;;;;;8.50;7.00;;;;;12.58;60.22;99517.13;4972337;28;45641;-73
2022/09/20 00:20:14;;;;;;;;;6.25;5.50;;;;;12.56;60.09;99523.44;4974493;28;45574;-72
2022/09/20 00:22:40;;;;;;;;;6.25;5.50;;;;;12.55;60.40;99516.44;4976310;28;45281;-72
2022/09/20 00:25:06;;;;;;;;;6.00;5.75;;;;;12.53;60.50;99526.22;4954311;28;45930;-72
2022/09/20 00:27:31;;;;;;;;;6.25;6.25;;;;;12.53;60.53;99518.28;4975098;28;46077;-72
2022/09/20 00:29:57;;;;;;;;;4.75;4.25;;;;;12.52;60.63;99516.56;4979269;28;46106;-72
2022/09/20 00:32:23;;;;;;;;;7.00;6.25;;;;;12.50;60.14;99513.97;4975362;28;45372;-72
2022/09/20 00:35:06;;;;;;;;;6.25;4.00;;;;;12.47;60.98;99521.16;4974120;28;45507;-73
2022/09/20 00:37:33;;;;;;;;;6.25;4.00;;;;;12.43;60.71;99523.06;4969043;28;46089;-72
2022/09/20 00:39:59;;;;;;;;;4.25;2.50;;;;;12.41;61.26;99524.03;4972990;28;46059;-72
2022/09/20 00:42:28;;;;;;;;;5.25;4.00;;;;;12.36;60.72;99512.81;4975210;28;45485;-72
2022/09/20 00:44:57;;;;;;;;;5.00;4.00;;;;;12.35;60.66;99525.19;4972649;28;45450;-72
2022/09/20 00:47:32;;;;;;;;;4.00;3.50;;;;;12.33;61.12;99534.09;4975997;28;45427;-72
2022/09/20 00:50:06;;;;;;;;;5.00;5.00;;;;;12.31;61.11;99528.00;4974338;28;45483;-72
2022/09/20 00:52:33;;;;;;;;;4.75;4.00;;;;;12.28;60.79;99528.97;4972091;28;45466;-72
2022/09/20 00:55:01;;;;;;;;;4.00;4.00;;;;;12.27;60.30;99531.69;4974338;28;45534;-72
2022/09/20 00:57:33;;;;;;;;;3.00;3.00;;;;;12.24;60.90;99525.59;4971145;28;45551;-72
2022/09/20 01:00:00;;;;;;;;;2.00;2.00;;;;;12.23;60.78;99536.25;4973282;28;46443;-72
2022/09/20 01:02:30;;;;;;;;;4.40;3.80;;;;;12.24;60.35;99538.81;4975697;28;45455;-72
2022/09/20 01:04:56;;;;;;;;;3.50;3.00;;;;;12.27;60.78;99529.03;4973294;28;45370;-72
2022/09/20 01:07:23;;;;;;;;;5.25;3.00;;;;;12.29;60.68;99546.56;4972182;28;45452;-72
2022/09/20 01:09:49;;;;;;;;;3.50;3.50;;;;;12.30;60.43;99542.13;4972521;28;45435;-72
2022/09/20 01:12:26;;;;;;;;;5.75;4.00;;;;;12.29;60.33;99545.69;4973855;28;45659;-73
2022/09/20 01:14:53;;;;;;;;;3.00;2.00;;;;;12.28;60.55;99544.84;4978619;28;45476;-72
2022/09/20 01:17:24;;;;;;;;;3.50;3.50;;;;;12.26;60.52;99540.53;4974932;28;45468;-72
2022/09/20 01:20:05;;;;;;;;;5.00;3.00;;;;;12.24;61.00;99541.44;4968354;28;46737;-72
2022/09/20 01:22:51;;;;;;;;;4.40;2.60;;;;;12.23;60.64;99537.09;4972787;28;45360;-72
2022/09/20 01:25:26;;;;;;;;;3.75;3.00;;;;;12.24;60.82;99543.22;4977131;28;45382;-72
2022/09/20 01:27:53;;;;;;;;;3.75;3.00;;;;;12.24;60.67;99540.59;4975311;28;45635;-72
2022/09/20 01:30:21;;;;;;;;;4.00;3.25;;;;;12.21;60.17;99546.88;4976163;28;46341;-73
2022/09/20 01:32:46;;;;;;;;;4.75;3.00;;;;;12.20;60.28;99544.31;4958235;28;45529;-73
2022/09/20 01:35:14;;;;;;;;;7.00;3.50;;;;;12.19;60.03;99546.09;4961478;28;45575;-72
2022/09/20 01:37:58;;;;;;;;;3.00;3.00;;;;;12.19;60.61;99548.72;4976066;28;45442;-72
2022/09/20 01:41:05;;;;;;;;;3.25;2.50;;;;;12.18;60.20;99547.00;4955895;28;48383;-72
2022/09/20 01:43:43;;;;;;;;;3.25;1.25;;;;;12.16;60.13;99543.56;4947125;28;45474;-72
2022/09/20 01:46:24;;;;;;;;;3.50;3.50;;;;;12.18;60.66;99543.50;4966177;28;45729;-72
2022/09/20 01:48:56;;;;;;;;;4.00;4.00;;;;;12.17;60.08;99544.41;4975570;28;45501;-73
2022/09/20 01:52:02;;;;;;;;;3.50;2.25;;;;;12.18;60.06;99543.50;4974705;28;45610;-72
2022/09/20 01:54:31;;;;;;;;;0.80;0.00;;;;;12.17;59.97;99545.28;4966708;28;45505;-72
2022/09/20 01:57:34;;;;;;;;;5.00;4.75;;;;;12.17;60.66;99549.72;4956948;28;45447;-72
2022/09/20 02:00:34;;;;;;;;;4.00;4.00;;;;;12.14;60.47;99548.03;4972426;28;45508;-72
2022/09/20 02:03:00;;;;;;;;;3.00;3.00;;;;;12.14;60.56;99557.75;4918686;28;45650;-72
2022/09/20 02:05:43;;;;;;;;;3.75;3.75;;;;;12.13;60.31;99548.97;4980606;28;45467;-72
2022/09/20 02:08:28;;;;;;;;;4.00;4.00;;;;;12.13;60.39;99554.25;4966119;28;45898;-72
2022/09/20 02:11:08;;;;;;;;;3.00;3.00;;;;;12.16;60.39;99554.13;4964889;28;45531;-72
2022/09/20 02:13:40;;;;;;;;;4.75;3.00;;;;;12.19;60.34;99553.16;4972009;28;46443;-72
2022/09/20 02:16:23;;;;;;;;;4.00;4.00;;;;;12.19;61.31;99551.38;4974673;28;45506;-72
2022/09/20 02:19:01;;;;;;;;;4.50;3.00;;;;;12.19;61.23;99553.16;4973890;28;45511;-72
2022/09/20 02:21:37;;;;;;;;;3.25;3.00;;;;;12.17;61.77;99552.34;4976379;28;45314;-72
2022/09/20 02:24:27;;;;;;;;;4.00;2.00;;;;;12.12;61.67;99552.53;4975842;28;45483;-72
2022/09/20 02:27:13;;;;;;;;;3.00;3.00;;;;;12.07;61.81;99550.97;4973990;28;45497;-72
2022/09/20 02:30:16;;;;;;;;;4.50;3.00;;;;;12.00;62.06;99550.38;4963043;28;45749;-72
2022/09/20 02:33:00;;;;;;;;;2.25;2.25;;;;;11.96;62.18;99550.53;4974449;28;45603;-72
2022/09/20 02:35:47;;;;;;;;;2.75;2.00;;;;;11.92;62.21;99547.16;4972247;28;45451;-72
2022/09/20 02:38:51;;;;;;;;;2.50;2.50;;;;;11.86;62.70;99539.47;4966404;28;45522;-72
2022/09/20 02:41:26;;;;;;;;;1.00;1.00;;;;;11.82;62.79;99543.16;4943058;28;45429;-72
2022/09/20 02:44:22;;;;;;;;;3.50;3.00;;;;;11.79;62.62;99545.91;4977202;28;45606;-72
2022/09/20 02:47:20;;;;;;;;;2.75;2.75;;;;;11.78;63.03;99546.81;4973702;28;45573;-72
2022/09/20 02:49:51;;;;;;;;;4.00;2.75;;;;;11.76;62.94;99541.59;4965496;28;45634;-72
2022/09/20 02:52:25;;;;;;;;;2.00;2.00;;;;;11.73;62.77;99541.69;4979310;28;45503;-72
2022/09/20 02:55:03;;;;;;;;;3.00;3.00;;;;;11.74;62.89;99542.53;4972320;28;45482;-72
2022/09/20 02:57:58;;;;;;;;;2.00;2.00;;;;;11.73;63.00;99543.47;4973077;28;45760;-72
2022/09/20 03:00:35;;;;;;;;;2.40;2.20;;;;;11.72;62.93;99547.91;4973743;28;45536;-72
2022/09/20 03:03:39;;;;;;;;;2.00;2.00;;;;;11.73;63.00;99546.13;4973291;28;45502;-73
2022/09/20 03:06:26;;;;;;;;;4.50;3.50;;;;;11.73;64.11;99551.41;4874337;29;45515;-72
2022/09/20 03:09:06;;;;;;;;;2.00;2.00;;;;;11.72;63.97;99550.56;4966814;28;45714;-72
2022/09/20 03:11:51;;;;;;;;;2.50;2.50;;;;;11.68;63.66;99548.06;4976019;28;45426;-72
2022/09/20 03:14:22;;;;;;;;;4.25;3.25;;;;;11.64;63.35;99544.69;4977021;28;45439;-73
2022/09/20 03:17:03;;;;;;;;;3.00;3.00;;;;;11.62;63.69;99548.28;4972637;28;45535;-72
2022/09/20 03:19:41;;;;;;;;;4.00;2.00;;;;;11.59;63.68;99548.41;4970129;28;45532;-72
2022/09/20 03:22:07;;;;;;;;;2.00;2.00;;;;;11.56;63.59;99546.75;4957059;28;46009;-72
2022/09/20 03:24:58;;;;;;;;;3.00;3.00;;;;;11.52;63.93;99548.66;4975168;28;45493;-72
2022/09/20 03:27:54;;;;;;;;;2.75;2.75;;;;;11.51;64.08;99548.69;4952795;28;45574;-72
2022/09/20 03:30:50;;;;;;;;;4.50;3.50;;;;;11.49;64.35;99543.47;4968948;28;46817;-72
2022/09/20 03:33:24;;;;;;;;;3.00;2.00;;;;;11.46;64.25;99545.34;4966540;28;45518;-72
2022/09/20 03:36:11;;;;;;;;;2.75;2.75;;;;;11.45;63.91;99548.91;4972125;28;45553;-72
2022/09/20 03:39:14;;;;;;;;;2.50;2.50;;;;;11.45;64.09;99549.78;4971258;28;45447;-72
2022/09/20 03:41:57;;;;;;;;;2.50;2.00;;;;;11.47;64.05;99547.09;4971413;28;45666;-72
2022/09/20 03:44:35;;;;;;;;;5.50;4.00;;;;;11.47;65.15;99550.59;4957487;28;45436;-72
2022/09/20 03:47:39;;;;;;;;;4.00;4.00;;;;;11.46;65.71;99546.22;4973673;28;45673;-72
2022/09/20 03:50:26;;;;;;;;;5.00;5.00;;;;;11.46;65.92;99548.00;4960263;28;45794;-72
2022/09/20 03:53:11;;;;;;;;;5.50;4.00;;;;;11.45;66.01;99551.56;4945056;28;47682;-72
2022/09/20 03:55:48;;;;;;;;;4.00;4.00;;;;;11.46;66.24;99543.59;4973148;28;45529;-72
2022/09/20 03:58:28;;;;;;;;;3.75;3.75;;;;;11.45;66.19;99539.22;4957967;28;45499;-72
2022/09/20 04:01:28;;;;;;;;;6.75;5.00;;;;;11.46;66.19;99548.00;4974260;28;45591;-72
2022/09/20 04:04:23;;;;;;;;;4.50;4.50;;;;;11.47;66.49;99547.94;4976273;28;45605;-72
2022/09/20 04:07:00;;;;;;;;;3.00;3.00;;;;;11.48;66.30;99549.66;4944272;28;45557;-72
2022/09/20 04:09:47;;;;;;;;;5.50;4.00;;;;;11.50;65.85;99552.25;4976154;28;45364;-72
2022/09/20 04:12:50;;;;;;;;;8.50;5.75;;;;;11.48;66.15;99554.94;4967311;28;45460;-72
2022/09/20 04:15:53;;;;;;;;;6.75;5.25;;;;;11.50;66.23;99554.91;4974958;28;45528;-72
2022/09/20 04:18:29;;;;;;;;;6.50;4.25;;;;;11.49;66.31;99559.31;4964007;28;45617;-72
2022/09/20 04:21:07;;;;;;;;;4.75;4.75;;;;;11.49;66.12;99559.31;4975110;28;45461;-72
2022/09/20 04:23:58;;;;;;;;;5.00;3.50;;;;;11.51;65.71;99565.41;4968434;28;45522;-72
2022/09/20 04:26:34;;;;;;;;;5.00;4.00;;;;;11.50;65.58;99566.31;4970849;28;46618;-72
2022/09/20 04:29:31;;;;;;;;;4.00;4.00;;;;;11.49;65.86;99564.59;4969733;28;45471;-72
2022/09/20 04:32:08;;;;;;;;;4.50;4.50;;;;;11.50;65.77;99568.09;4970416;28;45558;-72
2022/09/20 04:37:38;;;;;;;;;7.00;7.00;;;;;11.48;66.10;99570.78;4964804;28;45521;-72
2022/09/20 04:40:07;;;;;;;;;6.00;6.00;;;;;11.47;66.12;99574.34;4974366;28;45502;-72
2022/09/20 04:43:01;;;;;;;;;6.25;6.00;;;;;11.47;66.11;99578.75;4972888;28;45515;-72
2022/09/20 04:45:57;;;;;;;;;5.50;5.00;;;;;11.45;66.45;99578.81;4975137;28;45559;-72
2022/09/20 04:48:43;;;;;;;;;6.25;5.25;;;;;11.42;66.91;99584.19;4975429;28;46699;-72
2022/09/20 04:51:27;;;;;;;;;5.75;5.25;;;;;11.38;67.39;99574.69;4973122;28;45476;-72
2022/09/20 04:54:24;;;;;;;;;13.33;13.33;;;;;11.34;67.21;99582.78;4974172;28;45487;-71
2022/09/20 04:57:04;;;;;;;;;5.50;5.50;;;;;11.31;66.98;99581.09;4975790;28;45595;-71
2022/09/20 04:59:52;;;;;;;;;5.75;5.00;;;;;11.26;67.04;99576.88;4955978;28;47707;-71
2022/09/20 05:02:23;;;;;;;;;5.75;4.25;;;;;11.19;67.38;99576.25;4971542;28;45399;-71
2022/09/20 05:05:23;;;;;;;;;7.00;5.25;;;;;11.14;67.57;99576.41;4979505;28;45305;-71
2022/09/20 05:08:00;;;;;;;;;8.75;7.75;;;;;11.14;67.96;99584.34;4949645;28;45584;-71
2022/09/20 05:10:43;;;;;;;;;5.00;5.00;;;;;11.15;68.20;99588.69;4972930;28;46192;-72
2022/09/20 05:13:20;;;;;;;;;6.00;6.00;;;;;11.14;68.11;99589.59;4969056;28;45443;-71
2022/09/20 05:16:15;;;;;;;;;5.00;5.00;;;;;11.14;68.90;99586.13;4973669;28;45505;-72
2022/09/20 05:18:52;;;;;;;;;5.00;4.50;;;;;11.14;69.01;99584.34;4971765;28;45476;-71
2022/09/20 05:21:46;;;;;;;;;8.00;7.75;;;;;11.16;69.17;99592.19;4970616;28;46783;-59
2022/09/20 05:24:33;;;;;;;;;5.50;5.50;;;;;11.26;68.50;99588.31;4971938;28;45617;-58
2022/09/20 05:26:58;;;;;;;;;8.00;6.00;;;;;11.33;68.01;99591.59;4970919;28;45376;-59
2022/09/20 05:29:35;;;;;;;;;7.25;7.25;;;;;11.37;67.82;99596.72;4974589;28;45522;-58
2022/09/20 05:32:30;;;;;;;;;12.00;7.00;;;;;11.41;67.47;99595.69;4968874;28;45551;-59
2022/09/20 05:35:32;;;;;;;;;9.50;9.00;;;;;11.45;67.26;99604.34;4946598;28;45579;-58
2022/09/20 05:38:00;;;;;;;;;7.00;7.00;;;;;11.44;67.14;99598.22;4970922;28;45453;-58
2022/09/20 05:40:58;;;;;;;;;14.00;9.25;;;;;11.45;67.14;99599.06;4971543;28;45585;-58
2022/09/20 05:43:31;;;;;;;;;10.25;9.00;;;;;11.45;66.89;99599.06;4970551;28;46516;-58
2022/09/20 05:46:44;;;;;;;;;8.00;7.00;;;;;11.43;67.04;99603.53;4969767;28;45514;-58
2022/09/20 05:49:29;;;;;;;;;6.75;6.00;;;;;11.43;67.26;99611.47;4887659;29;45624;-59
2022/09/20 05:52:11;;;;;;;;;8.00;8.00;;;;;11.44;67.57;99600.00;4890448;28;45591;-58
2022/09/20 05:55:15;;;;;;;;;9.75;8.00;;;;;11.46;67.77;99614.88;4949102;28;47526;-58
2022/09/20 05:57:55;;;;;;;;;10.00;8.25;;;;;11.49;67.86;99611.25;4886957;28;45496;-58
2022/09/20 06:00:26;;;;;;;;;10.25;7.00;;;;;11.52;67.99;99612.03;4969791;28;45555;-59
2022/09/20 06:02:55;;;;;;;;;9.25;9.00;;;;;11.56;67.85;99609.28;4955924;28;45580;-58
2022/09/20 06:05:48;;;;;;;;;7.00;7.00;;;;;11.57;67.54;99603.91;4974241;28;46781;-58
2022/09/20 06:08:33;;;;;;;;;10.25;8.50;;;;;11.60;67.53;99610.84;4971565;28;45796;-59
2022/09/20 06:11:37;;;;;;;;;6.75;6.75;;;;;11.60;67.61;99614.38;4976523;28;45444;-59
2022/09/20 06:14:33;;;;;;;;;7.00;7.00;;;;;11.62;67.62;99617.81;4974735;28;45439;-58
2022/09/20 06:17:10;;;;;;;;;8.00;8.00;;;;;11.66;67.42;99621.22;4966253;28;47463;-58
2022/09/20 06:19:45;;;;;;;;;6.75;5.25;;;;;11.66;67.24;99622.06;4976291;28;45558;-58
2022/09/20 06:22:26;;;;;;;;;8.00;7.25;;;;;11.64;67.47;99628.31;4971932;28;45471;-58
2022/09/20 06:25:13;;;;;;;;;6.25;6.25;;;;;11.66;67.57;99632.63;4973879;28;45332;-58
2022/09/20 06:27:53;;;;;;;;;6.00;6.00;;;;;11.69;67.61;99624.59;4973543;28;45432;-59
2022/09/20 06:30:24;;;;;;;;;7.50;7.00;;;;;11.76;67.47;99627.91;4956694;28;45516;-58
2022/09/20 06:33:21;;;;;;;;;7.00;6.00;;;;;11.81;67.36;99628.59;4985431;28;45459;-58
2022/09/20 06:41:36;;;;;;;;;4.25;4.25;;;;;11.93;67.11;99630.78;4989053;28;45441;-58
2022/09/20 06:44:03;;;;;;;;;9.00;8.00;;;;;11.98;67.06;99634.13;4974575;28;45513;-58
2022/09/20 06:46:31;;;;;;;;;9.00;9.00;;;;;12.03;67.09;99631.31;4975969;28;45472;-58
2022/09/20 06:48:57;;;;;;;;;7.25;5.75;;;;;12.08;66.71;99634.63;4980260;28;46645;-58
2022/09/20 06:51:25;;;;;;;;;8.50;7.75;;;;;12.13;66.65;99636.19;4983332;28;45439;-58
2022/09/20 06:53:53;;;;;;;;;8.75;6.75;;;;;12.18;66.50;99628.09;4986356;28;45496;-58
2022/09/20 06:56:22;;;;;;;;;7.00;7.00;;;;;12.22;66.57;99627.91;4990020;28;45430;-58
2022/09/20 06:58:48;;;;;;;;;9.00;7.00;;;;;12.29;66.50;99628.53;4979342;28;46250;-58
2022/09/20 07:01:14;;;;;;;;;6.50;6.00;;;;;12.33;66.09;99632.78;4989877;28;45383;-58
2022/09/20 07:03:41;;;;;;;;;8.00;7.00;;;;;12.39;66.32;99627.25;4979983;28;45423;-58
2022/09/20 07:06:07;;;;;;;;;10.25;8.50;;;;;12.44;66.12;99624.41;4968305;28;45433;-58
2022/09/20 07:08:33;;;;;;;;;11.75;9.25;;;;;12.48;65.85;99624.22;4983023;28;45725;-58
2022/09/20 07:11:13;;;;;;;;;11.75;9.00;;;;;12.52;65.63;99628.50;4984423;28;45322;-58
2022/09/20 07:13:39;;;;;;;;;7.50;6.00;;;;;12.55;65.35;99623.09;4982541;28;45437;-58
2022/09/20 07:16:06;;;;;;;;;6.75;6.75;;;;;12.62;65.27;99623.69;4991163;28;45445;-59
2022/09/20 07:18:32;;;;;;;;;6.50;6.00;;;;;12.67;65.35;99626.16;4979675;28;46497;-58
2022/09/20 07:20:59;;;;;;;;;7.00;7.00;;;;;12.70;64.93;99626.03;4988029;28;45448;-58
2022/09/20 07:23:28;;;;;;;;;9.00;9.00;;;;;12.74;64.94;99617.00;4982384;28;45407;-58
2022/09/20 07:25:58;;;;;;;;;7.00;6.25;;;;;12.80;64.67;99628.22;4987442;28;45447;-58
2022/09/20 07:28:23;;;;;;;;;9.25;8.50;;;;;12.85;64.31;99623.63;4981536;28;45955;-58
2022/09/20 07:30:49;;;;;;;;;7.25;7.00;;;;;12.88;64.59;99626.13;4990683;28;45446;-58
2022/09/20 07:33:20;;;;;;;;;6.25;6.25;;;;;12.93;64.47;99632.06;4965025;28;46001;-58
2022/09/20 07:35:47;;;;;;;;;7.00;7.00;;;;;12.98;64.23;99631.03;4988475;28;45533;-58
2022/09/20 07:38:14;;;;;;;;;6.50;6.00;;;;;12.99;63.93;99638.06;4980057;28;46201;-58
2022/09/20 07:40:39;;;;;;;;;6.00;5.75;;;;;13.02;63.75;99630.00;4959154;28;45507;-58
2022/09/20 07:43:05;;;;;;;;;11.75;10.00;;;;;13.06;63.77;99631.59;4986728;28;45418;-58
2022/09/20 07:45:30;;;;;;;;;6.00;6.00;;;;;13.10;63.74;99633.16;4986298;28;45532;-58
2022/09/20 07:47:58;;;;;;;;;8.00;7.00;;;;;13.13;63.85;99635.69;4983639;28;46405;-58
2022/09/20 07:50:24;;;;;;;;;6.25;6.00;;;;;13.16;63.59;99633.81;4991866;28;45379;-57
2022/09/20 07:52:49;;;;;;;;;10.00;10.00;;;;;13.22;63.33;99635.34;4984299;28;45536;-59
2022/09/20 07:55:15;;;;;;;;;13.50;12.75;;;;;13.28;63.56;99633.28;4989585;28;45374;-58
2022/09/20 07:57:41;;;;;;;;;6.50;5.75;;;;;13.33;63.24;99629.56;4976131;28;45506;-58
2022/09/20 08:00:08;;;;;;;;;5.00;5.00;;;;;13.35;63.13;99641.81;4978392;28;45424;-57
2022/09/20 08:02:34;;;;;;;;;8.25;7.50;;;;;13.39;63.14;99635.47;4985914;28;45344;-58
2022/09/20 08:05:00;;;;;;;;;10.00;9.50;;;;;13.44;63.17;99636.13;4979401;28;45668;-58
2022/09/20 08:07:25;;;;;;;;;10.00;8.50;;;;;13.48;62.71;99637.72;4962477;28;46811;-58
2022/09/20 08:09:51;;;;;;;;;6.75;5.75;;;;;13.52;62.23;99636.66;4989683;28;45444;-58
2022/09/20 08:12:17;;;;;;;;;6.75;6.75;;;;;13.57;62.12;99637.28;4981510;28;45419;-58
2022/09/20 08:14:43;;;;;;;;;5.75;5.50;;;;;13.62;61.85;99627.38;4989498;28;45500;-58
2022/09/20 08:17:10;;;;;;;;;7.25;5.75;;;;;13.69;61.51;99627.97;4990373;28;45419;-58
2022/09/20 08:19:38;;;;;;;;;8.25;6.75;;;;;13.75;61.20;99634.75;4978735;28;45565;-58
2022/09/20 08:22:05;;;;;;;;;6.75;6.00;;;;;13.79;61.31;99631.91;4984410;28;45438;-58
2022/09/20 08:24:31;;;;;;;;;6.75;5.00;;;;;13.82;60.74;99625.63;4976611;28;45469;-58
2022/09/20 08:26:56;;;;;;;;;5.75;5.25;;;;;13.84;60.77;99629.06;4992686;28;47307;-58
2022/09/20 08:29:22;;;;;;;;;6.50;6.50;;;;;13.83;60.42;99627.34;4976388;28;45375;-58
2022/09/20 08:31:47;;;;;;;;;7.50;6.00;;;;;13.85;60.53;99626.34;4970629;28;45854;-58
2022/09/20 08:34:14;;;;;;;;;7.00;6.00;;;;;13.91;60.53;99627.84;4976245;28;45573;-58
2022/09/20 08:36:44;;;;;;;;;8.25;5.00;;;;;13.97;60.23;99633.72;4959159;28;46322;-58
2022/09/20 08:39:10;;;;;;;;;4.60;4.60;;;;;14.03;60.19;99635.25;4966143;28;45448;-58
2022/09/20 08:41:47;;;;;;;;;6.25;6.25;;;;;14.09;59.76;99632.28;4987333;28;45285;-58
2022/09/20 08:44:24;;;;;;;;;5.75;4.75;;;;;14.12;59.60;99632.16;4971379;28;45502;-58
2022/09/20 08:46:56;;;;;;;;;5.00;5.00;;;;;14.16;59.40;99640.84;4989263;28;45481;-58
2022/09/20 08:49:26;;;;;;;;;5.00;5.00;;;;;14.19;59.22;99638.91;4977908;28;45471;-57
2022/09/20 08:51:53;;;;;;;;;4.25;3.00;;;;;14.20;59.29;99635.34;4973827;28;45520;-57
2022/09/20 08:54:21;;;;;;;;;5.00;5.00;;;;;14.19;59.08;99638.06;4976477;28;45550;-59
2022/09/20 08:56:48;;;;;;;;;5.00;4.75;;;;;14.19;58.80;99636.25;4992151;28;46253;-58
2022/09/20 08:59:18;;;;;;;;;6.40;5.60;;;;;14.19;59.05;99632.75;4974860;28;45452;-58
2022/09/20 09:01:48;;;;;;;;;7.50;5.25;;;;;14.20;58.85;99630.03;4992923;28;45420;-58
2022/09/20 09:04:20;;;;;;;;;7.00;5.75;;;;;14.26;58.57;99636.81;4976181;28;45396;-58
2022/09/20 09:06:46;;;;;;;;;6.00;6.00;;;;;14.30;58.53;99625.13;4969794;28;46159;-58
2022/09/20 09:09:18;;;;;;;;;6.80;6.80;;;;;14.39;58.34;99626.50;4959929;28;45466;-58
2022/09/20 09:11:45;;;;;;;;;5.75;5.75;;;;;14.44;58.50;99625.38;4972451;28;45483;-58
2022/09/20 09:17:29;;;;;;;;;10.25;7.00;;;;;14.52;58.22;99622.38;4987851;28;45556;-57
2022/09/20 09:20:15;;;;;;;;;4.80;4.40;;;;;14.57;57.73;99612.41;4975891;28;45450;-59
2022/09/20 09:22:44;;;;;;;;;7.50;6.25;;;;;14.61;58.20;99620.13;4986132;28;45579;-58
2022/09/20 09:25:21;;;;;;;;;6.50;6.00;;;;;14.65;57.64;99619.03;4973401;28;45541;-58
2022/09/20 09:27:53;;;;;;;;;6.00;5.50;;;;;14.70;57.80;99610.00;4984223;28;46614;-58
2022/09/20 09:30:33;;;;;;;;;7.20;6.00;;;;;14.76;57.58;99615.00;4977575;28;45402;-58
2022/09/20 09:33:32;;;;;;;;;7.75;7.75;;;;;14.81;57.25;99610.31;4974783;28;45483;-59
2022/09/20 09:36:13;;;;;;;;;7.00;5.00;;;;;14.82;57.35;99610.25;4980277;28;45352;-57
2022/09/20 09:38:43;;;;;;;;;7.00;7.00;;;;;14.85;57.10;99606.59;4965945;28;46392;-58
2022/09/20 09:41:25;;;;;;;;;6.50;6.50;;;;;14.89;57.44;99603.72;4985180;28;45480;-57
2022/09/20 09:44:00;;;;;;;;;6.00;6.00;;;;;14.95;57.29;99598.06;4983255;28;45662;-57
2022/09/20 09:46:31;;;;;;;;;6.75;5.50;;;;;15.03;57.15;99600.34;4982999;28;45480;-58
2022/09/20 09:49:07;;;;;;;;;4.00;3.75;;;;;15.09;56.64;99607.13;4981723;28;46193;-58
2022/09/20 09:51:35;;;;;;;;;8.20;4.60;;;;;15.15;56.57;99602.38;4985865;28;45400;-58
2022/09/20 09:54:01;;;;;;;;;5.25;4.25;;;;;15.21;56.75;99599.41;4989073;28;45371;-58
2022/09/20 09:56:48;;;;;;;;;4.75;3.75;;;;;15.26;56.72;99591.19;4994010;28;45400;-58
2022/09/20 09:59:39;;;;;;;;;4.50;2.25;;;;;15.31;55.55;99595.34;4975533;28;45646;-58
2022/09/20 10:02:41;;;;;;;;;3.00;3.00;;;;;15.41;54.70;99590.44;4972482;28;45626;-58
2022/09/20 10:05:21;;;;;;;;;4.75;3.75;;;;;15.44;55.26;99581.41;4967684;28;45248;-58
2022/09/20 10:08:20;;;;;;;;;3.00;3.00;;;;;15.50;55.41;99576.63;4976227;28;45443;-58
2022/09/20 10:10:51;;;;;;;;;3.25;3.25;;;;;15.57;55.64;99574.56;4983771;28;46498;-58
2022/09/20 10:13:21;;;;;;;;;3.60;2.80;;;;;15.58;54.18;99573.63;4965511;28;45389;-58
2022/09/20 10:15:49;;;;;;;;;3.25;3.25;;;;;15.59;54.57;99572.66;4978919;28;45420;-58
2022/09/20 10:18:33;;;;;;;;;2.50;2.00;;;;;15.65;54.51;99575.84;4983827;28;45488;-58
2022/09/20 10:21:27;;;;;;;;;5.40;3.40;;;;;15.74;54.80;99568.34;4981672;28;46209;-58
2022/09/20 10:23:52;;;;;;;;;3.60;3.60;;;;;15.78;54.50;99572.53;4968494;28;45311;-58
2022/09/20 10:26:42;;;;;;;;;3.75;3.00;;;;;15.83;54.74;99558.06;4989684;28;45423;-58
2022/09/20 10:29:26;;;;;;;;;3.75;3.50;;;;;15.97;54.37;99565.28;4968502;28;45588;-58
2022/09/20 10:32:17;;;;;;;;;2.75;2.75;;;;;16.04;53.27;99558.69;4989478;28;46297;-58
2022/09/20 10:35:00;;;;;;;;;4.60;3.80;;;;;16.08;53.64;99556.72;4969208;28;45347;-58
2022/09/20 10:37:39;;;;;;;;;2.00;2.00;;;;;16.10;53.78;99554.81;4986811;28;45478;-58
2022/09/20 10:40:07;;;;;;;;;4.25;3.50;;;;;16.15;53.56;99560.75;4980997;28;45375;-58
2022/09/20 10:45:38;;;;;;;;;3.20;3.20;;;;;16.23;53.01;99546.06;4980845;28;45495;-58
2022/09/20 10:48:11;;;;;;;;;3.75;2.75;;;;;16.29;52.55;99551.03;4991652;28;45444;-58
2022/09/20 10:50:59;;;;;;;;;3.25;3.00;;;;;16.34;53.11;99546.31;4988018;28;45440;-58
2022/09/20 10:53:47;;;;;;;;;5.00;3.00;;;;;16.43;52.74;99536.94;4958876;28;46663;-58
2022/09/20 10:56:29;;;;;;;;;2.20;2.20;;;;;16.54;52.73;99536.34;4975690;28;45340;-58
2022/09/20 10:59:15;;;;;;;;;5.25;3.75;;;;;16.63;52.64;99538.50;4977334;28;45447;-58
2022/09/20 11:02:11;;;;;;;;;2.25;2.25;;;;;16.72;52.18;99537.97;4982705;28;45554;-58
2022/09/20 11:05:03;;;;;;;;;2.20;2.20;;;;;16.85;52.12;99541.63;4979411;28;45482;-62
2022/09/20 11:07:57;;;;;;;;;2.80;2.80;;;;;17.00;51.69;99538.03;4988317;28;45487;-58
2022/09/20 11:10:41;;;;;;;;;3.00;3.00;;;;;17.12;51.21;99528.44;4979782;28;45447;-58
2022/09/20 11:13:19;;;;;;;;;4.00;4.00;;;;;17.22;51.37;99523.44;4979416;28;45465;-59
2022/09/20 11:16:02;;;;;;;;;3.00;2.60;;;;;17.32;51.03;99524.56;4989310;28;46206;-58
2022/09/20 11:18:49;;;;;;;;;3.20;3.20;;;;;17.39;50.46;99532.13;4966902;28;45606;-59
2022/09/20 11:21:23;;;;;;;;;1.00;1.00;;;;;17.42;50.21;99523.94;4967982;28;45427;-59
2022/09/20 11:23:56;;;;;;;;;3.75;3.50;;;;;17.50;50.49;99531.44;4972417;28;45472;-59
2022/09/20 11:26:27;;;;;;;;;3.20;2.00;;;;;17.55;50.38;99523.16;4991505;28;45758;-59
2022/09/20 11:29:12;;;;;;;;;3.00;3.00;;;;;17.60;50.29;99519.25;4978353;28;45484;-59
2022/09/20 11:31:43;;;;;;;;;6.50;5.00;;;;;17.66;49.93;99512.72;4989121;28;45315;-59
2022/09/20 11:34:21;;;;;;;;;4.20;4.20;;;;;17.68;49.63;99506.34;4981643;28;45508;-59
2022/09/20 11:36:57;;;;;;;;;4.60;3.60;;;;;17.75;49.53;99506.81;4968777;28;48629;-59
2022/09/20 11:39:45;;;;;;;;;3.20;3.20;;;;;17.83;49.73;99509.84;4975252;28;45415;-59
2022/09/20 11:42:19;;;;;;;;;3.80;3.80;;;;;17.88;49.63;99504.22;4985442;28;45704;-59
2022/09/20 11:44:45;;;;;;;;;4.25;4.25;;;;;17.93;49.13;99491.44;4982174;28;45186;-59
2022/09/20 11:47:39;;;;;;;;;3.00;3.00;;;;;18.02;49.26;99502.38;4971152;28;46241;-59
2022/09/20 11:50:38;;;;;;;;;3.80;3.00;;;;;18.08;48.76;99503.81;4984576;28;45442;-59
2022/09/20 11:53:13;;;;;;;;;3.00;3.00;;;;;18.11;48.86;99498.25;4981715;28;45477;-59
2022/09/20 11:56:05;;;;;;;;;2.75;2.75;;;;;18.18;49.51;99488.03;4980193;28;45372;-58
2022/09/20 11:58:47;;;;;;;;;3.00;3.00;;;;;18.26;49.11;99486.59;4975131;28;46356;-58
2022/09/20 12:01:14;;;;;;;;;3.00;3.00;;;;;18.30;48.61;99489.91;4961657;28;45369;-56
2022/09/20 12:03:42;;;;;;;;;4.00;4.00;;;;;18.34;49.08;99484.25;4982526;28;45493;-57
2022/09/20 12:06:22;;;;;;;;;3.25;2.00;;;;;18.37;48.86;99480.53;4973605;28;45419;-57
2022/09/20 12:08:50;;;;;;;;;4.00;3.60;;;;;18.37;49.25;99470.72;4983515;28;45797;-57
2022/09/20 12:11:25;;;;;;;;;4.60;3.20;;;;;18.41;49.29;99482.06;4985113;28;45361;-57
2022/09/20 12:13:55;;;;;;;;;4.40;4.40;;;;;18.46;48.88;99471.91;4980563;28;45526;-60
2022/09/20 12:16:40;;;;;;;;;4.25;4.00;;;;;18.52;48.64;99462.63;4993543;28;45522;-57
2022/09/20 12:19:10;;;;;;;;;3.00;3.00;;;;;18.60;49.30;99473.72;4973809;28;46513;-57
2022/09/20 12:21:59;;;;;;;;;3.00;3.00;;;;;18.69;48.86;99467.72;4982447;28;45362;-58
2022/09/20 12:24:34;;;;;;;;;4.00;3.00;;;;;18.73;48.37;99471.91;4968360;28;45433;-57
2022/09/20 12:27:19;;;;;;;;;4.00;4.00;;;;;18.69;48.37;99460.56;4985135;28;45239;-57
2022/09/20 12:29:46;;;;;;;;;2.40;2.00;;;;;18.74;48.41;99461.13;4974066;28;45777;-57
2022/09/20 12:32:33;;;;;;;;;2.00;2.00;;;;;18.74;48.79;99462.94;4990695;28;45454;-57
2022/09/20 12:34:59;;;;;;;;;2.00;2.00;;;;;18.81;48.66;99456.19;4978136;28;45487;-59